createdAt,value
2023-04-17T00:03:49.359Z,45.85
2023-04-17T00:08:52.342Z,45.15
2023-04-17T00:13:56.600Z,44.20
2023-04-17T00:18:59.655Z,45.92
2023-04-17T00:24:02.593Z,44.97
2023-04-17T00:29:06.823Z,45.22
2023-04-17T00:34:10.222Z,44.55
2023-04-17T00:39:13.459Z,44.30
2023-04-17T00:44:17.840Z,45.53
2023-04-17T00:49:21.305Z,44.05
2023-04-17T00:54:25.525Z,45.15
2023-04-17T00:59:29.788Z,44.75
2023-04-17T01:04:33.751Z,45.78
2023-04-17T01:09:36.957Z,45.53
2023-04-17T01:14:41.754Z,45.92
2023-04-17T01:19:44.858Z,46.58
2023-04-17T01:24:49.212Z,45.90
2023-04-17T01:29:52.186Z,47.03
2023-04-17T01:34:55.662Z,47.22
2023-04-17T01:40:01.034Z,46.63
2023-04-17T01:45:04.290Z,46.63
2023-04-17T01:50:09.065Z,46.33
2023-04-17T01:55:13.567Z,45.50
2023-04-17T02:00:17.201Z,46.72
2023-04-17T02:05:20.867Z,46.40
2023-04-17T02:10:25.070Z,47.03
2023-04-17T02:15:27.952Z,46.45
2023-04-17T02:20:31.006Z,48.10
2023-04-17T02:25:36.152Z,47.58
2023-04-17T02:30:39.661Z,47.75
2023-04-17T02:35:42.580Z,47.60
2023-04-17T02:40:46.883Z,47.00
2023-04-17T02:45:49.817Z,46.88
2023-04-17T02:50:53.056Z,45.97
2023-04-17T02:55:58.660Z,47.47
2023-04-17T03:01:03.345Z,46.72
2023-04-17T03:06:10.740Z,47.58
2023-04-17T03:11:15.081Z,46.83
2023-04-17T03:16:24.040Z,46.47
2023-04-17T03:21:27.673Z,46.20
2023-04-17T03:26:31.950Z,46.50
2023-04-17T03:31:39.422Z,47.25
2023-04-17T03:36:42.404Z,47.30
2023-04-17T03:41:47.056Z,47.17
2023-04-17T03:46:50.053Z,46.65
2023-04-17T03:51:53.559Z,46.55
2023-04-17T03:56:59.192Z,46.80
2023-04-17T04:02:02.339Z,46.50
2023-04-17T04:07:08.765Z,46.65
2023-04-17T04:12:14.121Z,46.92
2023-04-17T04:17:20.409Z,47.55
2023-04-17T04:22:23.953Z,49.88
2023-04-17T04:27:32.860Z,46.75
2023-04-17T04:32:37.541Z,46.75
2023-04-17T04:37:42.822Z,47.92
2023-04-17T04:42:49.636Z,46.35
2023-04-17T04:47:57.966Z,45.63
2023-04-17T04:53:01.243Z,45.55
2023-04-17T04:58:20.003Z,44.33
2023-04-17T05:03:31.334Z,44.97
2023-04-17T05:08:36.276Z,45.55
2023-04-17T05:13:47.890Z,44.50
2023-04-17T05:18:59.257Z,44.95
2023-04-17T05:24:20.721Z,44.83
2023-04-17T05:29:27.388Z,44.75
2023-04-17T05:34:31.805Z,44.80
2023-04-17T05:39:35.447Z,44.72
2023-04-17T05:44:40.202Z,45.30
2023-04-17T05:49:44.566Z,43.53
2023-04-17T05:54:47.478Z,44.97
2023-04-17T05:59:51.901Z,42.83
2023-04-17T06:04:55.486Z,42.97
2023-04-17T06:10:01.699Z,42.55
2023-04-17T06:15:09.041Z,43.28
2023-04-17T06:20:16.172Z,42.90
2023-04-17T06:25:19.173Z,43.08
2023-04-17T06:30:23.527Z,43.80
2023-04-17T06:35:29.796Z,43.63
2023-04-17T06:40:45.100Z,42.63
2023-04-17T06:45:49.981Z,42.05
2023-04-17T06:50:52.886Z,42.75
2023-04-17T06:55:55.818Z,41.42
2023-04-17T07:00:59.984Z,42.03
2023-04-17T07:06:03.032Z,41.05
2023-04-17T07:11:06.073Z,41.97
2023-04-17T07:16:11.012Z,42.63
2023-04-17T07:21:13.879Z,42.10
2023-04-17T07:26:16.836Z,42.15
2023-04-17T07:31:22.073Z,40.78
2023-04-17T07:36:27.005Z,41.58
2023-04-17T07:41:29.841Z,41.05
2023-04-17T07:46:34.144Z,41.60
2023-04-17T07:51:42.646Z,40.10
2023-04-17T07:56:47.109Z,39.15
2023-04-17T08:01:52.371Z,39.75
2023-04-17T08:06:55.392Z,39.65
2023-04-17T08:12:04.422Z,41.05
2023-04-17T08:17:08.914Z,41.72
2023-04-17T08:22:11.895Z,39.60
2023-04-17T08:27:15.142Z,40.33
2023-04-17T08:32:19.364Z,40.63
2023-04-17T08:37:22.227Z,40.88
2023-04-17T08:42:25.320Z,41.17
2023-04-17T08:47:30.046Z,41.30
2023-04-17T08:52:32.947Z,41.03
2023-04-17T08:57:36.366Z,41.42
2023-04-17T09:02:55.464Z,40.53
2023-04-17T09:08:11.332Z,40.00
2023-04-17T09:13:15.696Z,39.28
2023-04-17T09:18:27.832Z,40.17
2023-04-17T09:23:32.020Z,39.83
2023-04-17T09:28:39.015Z,40.38
2023-04-17T09:33:57.457Z,40.50
2023-04-17T09:39:03.547Z,39.58
2023-04-17T09:44:06.842Z,37.88
2023-04-17T09:49:15.771Z,39.40
2023-04-17T09:54:20.432Z,38.53
2023-04-17T09:59:24.881Z,39.50
2023-04-17T10:04:30.201Z,38.08
2023-04-17T10:09:33.115Z,39.08
2023-04-17T10:14:38.709Z,38.17
2023-04-17T10:19:42.912Z,39.42
2023-04-17T10:24:47.243Z,38.72
2023-04-17T10:29:53.295Z,39.08
2023-04-17T10:34:58.766Z,37.42
2023-04-17T10:40:02.630Z,37.38
2023-04-17T10:45:19.908Z,36.50
2023-04-17T10:50:29.095Z,37.05
2023-04-17T10:55:32.080Z,36.20
2023-04-17T11:00:37.514Z,36.38
2023-04-17T11:05:45.955Z,36.03
2023-04-17T11:10:53.492Z,36.25
2023-04-17T11:15:56.382Z,35.88
2023-04-17T11:21:00.632Z,35.90
2023-04-17T11:26:07.583Z,36.25
2023-04-17T11:31:13.118Z,35.33
2023-04-17T11:36:17.336Z,35.70
2023-04-17T11:41:20.406Z,35.05
2023-04-17T11:46:24.601Z,35.45
2023-04-17T11:51:29.395Z,34.50
2023-04-17T11:56:32.308Z,34.53
2023-04-17T12:01:35.269Z,34.50
2023-04-17T12:06:40.584Z,35.33
2023-04-17T12:11:43.635Z,35.17
2023-04-17T12:16:50.541Z,35.35
2023-04-17T12:21:55.716Z,35.45
2023-04-17T12:27:01.633Z,37.08
2023-04-17T12:32:05.019Z,37.50
2023-04-17T12:37:11.553Z,36.60
2023-04-17T12:42:14.505Z,35.72
2023-04-17T12:47:17.503Z,36.33
2023-04-17T12:52:21.721Z,37.83
2023-04-17T12:57:24.625Z,36.65
2023-04-17T13:02:27.634Z,35.35
2023-04-17T13:07:32.031Z,35.80
2023-04-17T13:12:34.907Z,35.42
2023-04-17T13:17:37.783Z,35.67
2023-04-17T13:22:42.054Z,35.75
2023-04-17T13:27:45.041Z,35.60
2023-04-17T13:32:47.942Z,35.25
2023-04-17T13:37:52.152Z,36.20
2023-04-17T13:42:55.128Z,35.10
2023-04-17T13:47:58.016Z,35.75
2023-04-17T13:53:02.957Z,35.65
2023-04-17T13:58:06.861Z,35.35
2023-04-17T14:03:09.852Z,37.25
2023-04-17T14:08:14.282Z,35.90
2023-04-17T14:13:17.328Z,35.25
2023-04-17T14:18:20.183Z,36.08
2023-04-17T14:23:24.481Z,36.97
2023-04-17T14:28:27.421Z,36.63
2023-04-17T14:33:30.373Z,37.17
2023-04-17T14:38:35.115Z,37.60
2023-04-17T14:43:38.061Z,38.05
2023-04-17T14:48:54.102Z,36.78
2023-04-17T14:53:59.812Z,37.45
2023-04-17T14:59:02.691Z,37.22
2023-04-17T15:04:06.387Z,37.50
2023-04-17T15:09:11.219Z,37.15
2023-04-17T15:14:14.283Z,37.38
2023-04-17T15:19:20.192Z,37.20
2023-04-17T15:24:24.396Z,36.78
2023-04-17T15:29:27.307Z,36.58
2023-04-17T15:34:30.269Z,36.42
2023-04-17T15:39:37.656Z,36.85
2023-04-17T15:44:40.629Z,36.55
2023-04-17T15:49:43.744Z,37.08
2023-04-17T15:54:48.006Z,36.55
2023-04-17T15:59:51.010Z,36.65
2023-04-17T16:04:53.926Z,36.55
2023-04-17T16:09:59.670Z,36.70
2023-04-17T16:15:02.556Z,36.47
2023-04-17T16:20:06.753Z,37.22
2023-04-17T16:25:12.498Z,36.33
2023-04-17T16:30:15.550Z,36.22
2023-04-17T16:35:18.558Z,36.47
2023-04-17T16:40:22.830Z,36.75
2023-04-17T16:45:25.660Z,37.25
2023-04-17T16:50:29.620Z,36.28
2023-04-17T16:55:34.448Z,37.33
2023-04-17T17:00:37.660Z,36.25
2023-04-17T17:05:40.535Z,36.13
2023-04-17T17:10:44.757Z,35.78
2023-04-17T17:15:47.652Z,40.80
2023-04-17T17:20:50.665Z,36.33
2023-04-17T17:25:54.960Z,36.25
2023-04-17T17:31:01.773Z,36.20
2023-04-17T17:36:04.861Z,35.88
2023-04-17T17:41:09.072Z,35.25
2023-04-17T17:46:11.967Z,36.20
2023-04-17T17:51:15.054Z,35.25
2023-04-17T17:56:20.746Z,35.78
2023-04-17T18:01:24.969Z,36.05
2023-04-17T18:06:28.653Z,36.00
2023-04-17T18:11:33.938Z,35.30
2023-04-17T18:16:37.511Z,35.30
2023-04-17T18:21:40.827Z,35.78
2023-04-17T18:26:45.101Z,35.65
2023-04-17T18:31:48.100Z,37.63
2023-04-17T18:36:51.177Z,36.42
2023-04-17T18:41:56.567Z,35.67
2023-04-17T18:46:59.642Z,35.60
2023-04-17T18:52:12.002Z,35.30
2023-04-17T18:57:21.769Z,35.08
2023-04-17T19:02:25.104Z,35.28
2023-04-17T19:07:29.541Z,35.53
2023-04-17T19:12:47.982Z,35.47
2023-04-17T19:17:54.437Z,35.40
2023-04-17T19:22:59.494Z,36.30
2023-04-17T19:28:16.396Z,38.00
2023-04-17T19:33:25.041Z,35.13
2023-04-17T19:38:28.775Z,35.08
2023-04-17T19:43:33.240Z,34.83
2023-04-17T19:48:36.624Z,34.92
2023-04-17T19:53:41.506Z,35.45
2023-04-17T19:58:46.130Z,34.70
2023-04-17T20:03:49.265Z,35.10
2023-04-17T20:08:52.456Z,35.25
2023-04-17T20:14:06.803Z,35.25
2023-04-17T20:19:09.668Z,35.38
2023-04-17T20:24:12.953Z,35.65
2023-04-17T20:29:17.365Z,34.45
2023-04-17T20:34:20.332Z,34.33
2023-04-17T20:39:23.387Z,35.17
2023-04-17T20:44:27.653Z,35.08
2023-04-17T20:49:32.132Z,35.30
2023-04-17T20:54:36.728Z,33.85
2023-04-17T20:59:40.977Z,34.22
2023-04-17T21:04:44.465Z,34.45
2023-04-17T21:09:47.405Z,34.15
2023-04-17T21:14:51.624Z,35.30
2023-04-17T21:19:55.759Z,34.95
2023-04-17T21:24:58.630Z,33.28
2023-04-17T21:30:03.836Z,34.92
2023-04-17T21:35:07.732Z,34.63
2023-04-17T21:40:11.606Z,34.92
2023-04-17T21:45:16.240Z,34.28
2023-04-17T21:50:19.543Z,34.75
2023-04-17T21:55:22.581Z,34.15
2023-04-17T22:00:26.815Z,34.33
2023-04-17T22:05:29.694Z,34.63
2023-04-17T22:10:32.900Z,34.42
2023-04-17T22:15:37.132Z,35.75
2023-04-17T22:20:39.971Z,35.60
2023-04-17T22:25:42.816Z,34.65
2023-04-17T22:30:50.973Z,35.72
2023-04-17T22:35:54.188Z,35.22
2023-04-17T22:40:57.053Z,35.10
2023-04-17T22:46:01.328Z,34.90
2023-04-17T22:51:04.343Z,35.30
2023-04-17T22:56:07.544Z,34.90
2023-04-17T23:01:11.788Z,35.42
2023-04-17T23:06:14.693Z,34.58
2023-04-17T23:11:18.544Z,35.05
2023-04-17T23:16:22.890Z,35.05
2023-04-17T23:21:26.076Z,34.75
2023-04-17T23:26:28.922Z,35.25
2023-04-17T23:31:33.162Z,35.03
2023-04-17T23:36:36.366Z,35.10
2023-04-17T23:41:42.165Z,35.75
2023-04-17T23:46:46.395Z,35.35
2023-04-17T23:51:49.341Z,34.92
2023-04-17T23:56:52.240Z,35.00
